Impacts TAF Board INFO
FOR SITUATIONAL AWARENESS. NOT TO BE USED FOR FLIGHT PLANNING PURPOSES.
IDs:

KJFK - New York/Kennedy Int, NY, US

Issued at 1743 UTC 22 Jan 2018
Updated at 1814 UTC 22 Jan 2018
Potential Impact None Slight Moderate High
Time<<23/19Z 23/20Z 23/21Z 23/22Z 23/23Z 24/00Z 24/01Z 24/02Z 24/03Z 24/04Z 24/05Z 24/06Z 24/07Z
Type PRVL PRVL PRVL PRVL PRVL
VIS 3 >6 >6 >6 >6
CIG 22 35 35 35 --
Cover BKN BKN BKN BKN SCT
FltCat MVFR VFR VFR VFR VFR
WX SHRA VCSH VCSH VCSH --
WDir 200 220 220 220 260
WSpd 15 14 14 14 14
WGst 24 23 23 23 22

Raw TAF
KJFK 221743Z 2218/2324 03004KT P6SM SCT025 OVC040
  FM230200 11005KT 5SM BR SCT008 OVC070 WS020/21030KT
  FM230900 16009KT 5SM -SHRA BR OVC008 WS020/20040KT
  FM231100 17011G21KT 3SM SHRA OVC008 WS020/21045KT
  FM231400 18017G27KT 3SM SHRA OVC011 WS020/20055KT
  FM231900 20015G24KT 3SM SHRA BKN022 WS020/21050KT
  FM232000 22014G23KT P6SM VCSH BKN035
  FM232300 26014G22KT P6SM SCT060


METAR Board
Radar Display
Forecast Discussion

FOR SITUATIONAL AWARENESS. NOT TO BE USED FOR FLIGHT PLANNING PURPOSES.